Oak Island, NC

8:32 AM EDT on April 24, 2017 (GMT -0400)
Oak Island - Marsh Hen | | Change Station
Active Advisory: Flash Flood Watch Active Notice: Flash Flood Watch

Elev 3 ft 33.91 °N, 78.14 °W | Updated 28 seconds ago

Mostly Cloudy
Mostly Cloudy
69.8 °F
Feels Like 69.8 °F
N
0.9
Wind Variable Wind from SE
Gusts 5.0 mph

Today
High -- | Low -- °F
--% Chance of Precip.
Yesterday
High -- | Low -- °F
Precip. -- in
Pressure 29.78 in
Visibility 7.0 miles
Clouds Scattered Clouds 3100 ft
Scattered Clouds 7500 ft
Mostly Cloudy 10000 ft
Dew Point 68 °F
Humidity 95%
Rainfall 0.54 in
Snow Depth Not available.
6:30 AM 7:51 PM
Waning Crescent, 6% visible
METAR KSUT 241220Z AUTO 13007G14KT 7SM SCT031 SCT075 BKN100 20/19 A2978 RMK AO2 T02040190
Pressure 29.78 in
Visibility 7.0 miles
Clouds Scattered Clouds 3100 ft
Scattered Clouds 7500 ft
Mostly Cloudy 10000 ft
Dew Point 68 °F
Humidity 95%
Rainfall 0.54 in
Snow Depth Not available.
6:30 AM 7:51 PM
Waning Crescent, 6% visible
METAR KSUT 241220Z AUTO 13007G14KT 7SM SCT031 SCT075 BKN100 20/19 A2978 RMK AO2 T02040190

Get Your Daily Forecast Email!

Thanks for signing up!

Be on the lookout for a verification email in your inbox.

You'll start receiving severe weather alerts in your inbox..

×

10-Day Weather Forecast

Almanac

Astronomy

Apr. 24, 2017 Rise Set
Actual Time
Civil Twilight
Nautical Twilight
Astronomical Twilight
Moon
Length of Visible Light
Length of Day
Tomorrow will be .
, % of the Moon is Illuminated

Today's Extremes

State Highs State Lows

Community

WunderPhotos

WunderBlog® & News

Nearby

Air Quality

  Air Quality AQ Index Pollutant
Not available.

Snow Depth

Station Depth Elevation

Earthquake Activity

City Distance Mag. Time & Date
Minimum magnitude displayed is 2.5.

Coastal Water Temperatures

Place Temperature

Stations

Nearby Weather Stations

Station Location Temp. Windchill Dew Point Humidity Wind Precip. Elev Updated Type
                   

Watches & Warnings

Flash Flood Watch
Issued: 3:56 AM EDT Apr. 24, 2017 – National Weather Service

... Flash Flood Watch remains in effect through Tuesday morning...

The Flash Flood Watch continues for

* all of northeast South Carolina and southeast North Carolina.

* Through Tuesday morning.

* Heavy rain beginning late tonight through early Tuesday with
rainfall of 3 to 7 inches expected. Locally higher amounts are
possible.

* The ground will become saturated, increasing the potential for
flash flooding, especially in locations with poor drainage
such as urban areas or in and around culverts. Excessive
roadway ponding is also likely, and at times some roads may
become impassable, especially if drainage ditches overflow
onto roadways.

Precautionary/preparedness actions...

A Flash Flood Watch means that conditions may develop that lead
to flash flooding. Flash flooding is a very dangerous situation.

You should monitor later forecasts and be prepared to take action
should flash flood warnings be issued.



17